createdAt,value
2019-05-14T00:01:13.073Z,6.90
2019-05-14T00:03:51.422Z,6.00
2019-05-14T00:06:21.879Z,6.13
2019-05-14T00:08:54.132Z,6.47
2019-05-14T00:11:25.195Z,6.37
2019-05-14T00:13:56.833Z,5.77
2019-05-14T00:16:35.193Z,6.03
2019-05-14T00:19:02.257Z,5.90
2019-05-14T00:21:31.833Z,6.40
2019-05-14T00:24:06.067Z,6.37
2019-05-14T00:26:37.572Z,5.50
2019-05-14T00:29:13.326Z,5.87
2019-05-14T00:31:43.966Z,5.97
2019-05-14T00:34:17.451Z,6.10
2019-05-14T00:36:47.112Z,5.93
2019-05-14T00:39:25.614Z,5.83
2019-05-14T00:41:56.340Z,5.97
2019-05-14T00:44:33.952Z,5.97
2019-05-14T00:47:03.191Z,5.87
2019-05-14T00:49:34.855Z,5.30
2019-05-14T00:52:12.863Z,5.63
2019-05-14T00:54:45.627Z,5.67
2019-05-14T00:57:21.079Z,6.00
2019-05-14T00:59:46.810Z,5.70
2019-05-14T01:02:25.572Z,5.97
2019-05-14T01:04:54.121Z,6.00
2019-05-14T01:07:32.022Z,6.13
2019-05-14T01:10:01.274Z,5.50
2019-05-14T01:12:41.325Z,5.43
2019-05-14T01:15:14.023Z,5.33
2019-05-14T01:17:43.605Z,5.43
2019-05-14T01:20:13.444Z,5.13
2019-05-14T01:22:43.093Z,5.90
2019-05-14T01:25:13.393Z,5.30
2019-05-14T01:27:48.220Z,5.70
2019-05-14T01:30:21.422Z,5.80
2019-05-14T01:33:01.737Z,5.93
2019-05-14T01:35:31.157Z,6.00
2019-05-14T01:38:02.408Z,5.93
2019-05-14T01:40:38.505Z,5.73
2019-05-14T01:43:11.544Z,5.97
2019-05-14T01:45:43.099Z,6.17
2019-05-14T01:48:27.535Z,5.67
2019-05-14T01:50:52.640Z,5.60
2019-05-14T01:53:25.474Z,5.60
2019-05-14T01:55:56.838Z,5.17
2019-05-14T01:58:31.046Z,5.13
2019-05-14T02:01:03.518Z,4.83
2019-05-14T02:03:35.683Z,4.97
2019-05-14T02:06:07.629Z,5.63
2019-05-14T02:08:42.564Z,5.20
2019-05-14T02:11:18.700Z,5.20
2019-05-14T02:13:51.922Z,4.93
2019-05-14T02:16:25.538Z,4.63
2019-05-14T02:19:01.538Z,4.57
2019-05-14T02:21:31.724Z,4.77
2019-05-14T02:24:11.163Z,4.90
2019-05-14T02:26:35.966Z,4.33
2019-05-14T02:29:16.274Z,4.83
2019-05-14T02:31:50.419Z,4.77
2019-05-14T02:34:25.235Z,4.63
2019-05-14T02:37:10.779Z,4.13
2019-05-14T02:39:41.571Z,3.90
2019-05-14T02:42:19.862Z,4.00
2019-05-14T02:44:59.119Z,4.13
2019-05-14T02:47:40.820Z,4.20
2019-05-14T02:50:04.588Z,4.30
2019-05-14T02:52:40.108Z,4.43
2019-05-14T02:55:14.884Z,4.70
2019-05-14T02:57:50.473Z,4.00
2019-05-14T03:00:19.370Z,4.70
2019-05-14T03:02:51.538Z,4.67
2019-05-14T03:05:23.212Z,4.50
2019-05-14T03:07:59.723Z,3.90
2019-05-14T03:10:30.206Z,4.10
2019-05-14T03:12:59.117Z,4.67
2019-05-14T03:15:33.940Z,4.13
2019-05-14T03:18:08.999Z,5.13
2019-05-14T03:20:38.713Z,4.00
2019-05-14T03:23:14.086Z,4.50
2019-05-14T03:25:42.037Z,4.53
2019-05-14T03:28:19.719Z,4.50
2019-05-14T03:30:53.098Z,4.17
2019-05-14T03:33:24.732Z,4.37
2019-05-14T03:36:01.390Z,4.40
2019-05-14T03:38:41.350Z,4.90
2019-05-14T03:41:09.318Z,4.10
2019-05-14T03:43:43.817Z,4.43
2019-05-14T03:46:22.569Z,4.60
2019-05-14T03:49:03.254Z,4.73
2019-05-14T03:51:39.450Z,4.40
2019-05-14T03:54:13.283Z,4.67
2019-05-14T03:56:49.331Z,4.63
2019-05-14T03:59:30.025Z,4.43
2019-05-14T04:02:02.186Z,4.70
2019-05-14T04:04:39.073Z,4.67
2019-05-14T04:07:10.820Z,5.40
2019-05-14T04:09:49.659Z,5.00
2019-05-14T04:12:40.338Z,4.67
2019-05-14T04:15:39.113Z,4.67
2019-05-14T04:17:55.288Z,5.07
2019-05-14T04:20:33.706Z,4.93
2019-05-14T04:23:12.039Z,5.50
2019-05-14T04:25:49.740Z,5.20
2019-05-14T04:28:22.268Z,5.50
2019-05-14T04:31:02.201Z,5.53
2019-05-14T04:33:33.084Z,5.97
2019-05-14T04:36:22.347Z,7.50
2019-05-14T04:39:02.146Z,7.23
2019-05-14T04:41:31.891Z,7.80
2019-05-14T04:44:09.682Z,8.83
2019-05-14T04:46:39.623Z,9.23
2019-05-14T04:49:19.987Z,8.57
2019-05-14T04:51:59.319Z,7.60
2019-05-14T04:54:30.629Z,6.83
2019-05-14T04:57:10.223Z,5.60
2019-05-14T04:59:52.721Z,6.03
2019-05-14T05:02:32.770Z,6.20
2019-05-14T05:05:04.706Z,5.60
2019-05-14T05:07:39.394Z,5.40
2019-05-14T05:10:10.191Z,5.43
2019-05-14T05:12:39.618Z,5.33
2019-05-14T05:15:14.443Z,5.63
2019-05-14T05:17:58.907Z,5.43
2019-05-14T05:21:11.458Z,5.03
2019-05-14T05:23:44.494Z,5.57
2019-05-14T05:26:21.978Z,5.43
2019-05-14T05:29:07.097Z,5.33
2019-05-14T05:31:44.123Z,4.80
2019-05-14T05:34:41.985Z,4.50
2019-05-14T05:37:18.922Z,4.80
2019-05-14T05:39:58.350Z,4.27
2019-05-14T05:51:09.268Z,3.87
2019-05-14T05:53:51.426Z,4.43
2019-05-14T05:56:28.872Z,4.40
2019-05-14T05:59:02.771Z,3.93
2019-05-14T06:01:46.035Z,3.97
2019-05-14T06:04:15.046Z,3.87
2019-05-14T06:06:48.461Z,3.87
2019-05-14T06:09:24.705Z,3.57
2019-05-14T06:12:00.773Z,3.40
2019-05-14T06:14:31.956Z,4.00
2019-05-14T06:17:19.382Z,3.67
2019-05-14T06:19:49.511Z,3.77
2019-05-14T06:22:22.609Z,4.00
2019-05-14T06:25:01.606Z,3.67
2019-05-14T06:27:44.215Z,3.70
2019-05-14T06:30:24.037Z,3.40
2019-05-14T06:32:55.106Z,3.60
2019-05-14T06:35:33.246Z,3.63
2019-05-14T06:38:05.125Z,4.23
2019-05-14T06:40:39.576Z,4.00
2019-05-14T06:43:12.717Z,3.77
2019-05-14T06:45:58.506Z,3.37
2019-05-14T06:49:23.368Z,3.57
2019-05-14T06:51:20.288Z,3.57
2019-05-14T06:54:02.180Z,3.40
2019-05-14T06:56:40.326Z,3.67
2019-05-14T06:59:12.307Z,3.77
2019-05-14T07:01:48.773Z,4.00
2019-05-14T07:04:19.031Z,3.53
2019-05-14T07:06:50.875Z,3.63
2019-05-14T07:09:30.740Z,3.90
2019-05-14T07:12:49.805Z,3.70
2019-05-14T07:14:38.617Z,3.70
2019-05-14T07:17:10.633Z,3.80
2019-05-14T07:19:44.692Z,3.50
2019-05-14T07:22:16.254Z,4.30
2019-05-14T07:25:00.693Z,3.73
2019-05-14T07:27:28.362Z,3.70
2019-05-14T07:30:13.458Z,3.80
2019-05-14T07:32:58.823Z,3.33
2019-05-14T07:35:22.754Z,3.40
2019-05-14T07:37:56.326Z,3.67
2019-05-14T07:40:39.460Z,3.50
2019-05-14T07:43:16.320Z,3.20
2019-05-14T07:45:45.396Z,3.20
2019-05-14T07:48:15.240Z,3.43
2019-05-14T07:50:52.139Z,3.20
2019-05-14T07:53:36.322Z,3.33
2019-05-14T07:56:06.287Z,3.70
2019-05-14T07:58:51.243Z,4.13
2019-05-14T08:01:28.037Z,3.43
2019-05-14T08:04:01.095Z,3.47
2019-05-14T08:06:34.414Z,2.97
2019-05-14T08:09:08.653Z,3.20
2019-05-14T08:11:44.536Z,3.33
2019-05-14T08:14:12.939Z,2.90
2019-05-14T08:16:44.301Z,3.50
2019-05-14T08:19:24.162Z,3.00
2019-05-14T08:21:59.119Z,3.07
2019-05-14T08:24:30.123Z,2.77
2019-05-14T08:27:04.284Z,2.47
2019-05-14T08:29:40.018Z,3.03
2019-05-14T08:32:28.555Z,2.60
2019-05-14T08:35:13.646Z,3.13
2019-05-14T08:38:05.617Z,2.83
2019-05-14T08:40:45.344Z,2.63
2019-05-14T08:43:32.057Z,2.70
2019-05-14T08:46:19.149Z,3.20
2019-05-14T08:48:50.736Z,3.23
2019-05-14T08:51:34.835Z,3.50
2019-05-14T08:54:18.459Z,3.03
2019-05-14T08:56:51.704Z,2.80
2019-05-14T08:59:28.997Z,2.80
2019-05-14T09:02:16.249Z,3.10
2019-05-14T09:05:03.297Z,2.50
2019-05-14T09:07:24.395Z,2.67
2019-05-14T09:10:00.087Z,2.13
2019-05-14T09:12:33.600Z,2.43
2019-05-14T09:15:11.194Z,2.27
2019-05-14T09:17:41.535Z,2.53
2019-05-14T09:20:18.715Z,2.80
2019-05-14T09:22:50.659Z,2.00
2019-05-14T09:25:22.910Z,1.90
2019-05-14T09:27:58.421Z,1.97
2019-05-14T09:30:30.473Z,2.37
2019-05-14T09:33:08.569Z,2.20
2019-05-14T09:35:39.378Z,2.03
2019-05-14T09:38:18.648Z,2.10
2019-05-14T09:41:05.668Z,2.30
2019-05-14T09:43:21.737Z,2.37
2019-05-14T09:45:53.137Z,2.40
2019-05-14T09:48:25.964Z,2.13
2019-05-14T09:50:55.639Z,1.73
2019-05-14T09:53:25.662Z,1.70
2019-05-14T09:56:05.655Z,1.87
2019-05-14T09:58:35.603Z,1.63
2019-05-14T10:01:10.897Z,1.83
2019-05-14T10:03:42.746Z,1.70
2019-05-14T10:06:15.133Z,1.60
2019-05-14T10:08:44.722Z,1.60
2019-05-14T10:11:29.723Z,1.70
2019-05-14T10:13:51.647Z,1.67
2019-05-14T10:16:29.108Z,1.83
2019-05-14T10:19:02.276Z,1.90
2019-05-14T10:21:38.758Z,1.77
2019-05-14T10:24:09.116Z,1.67
2019-05-14T10:26:39.587Z,2.20
2019-05-14T10:29:22.315Z,1.83
2019-05-14T10:31:52.265Z,2.00
2019-05-14T10:34:25.249Z,1.70
2019-05-14T10:36:54.858Z,2.30
2019-05-14T10:39:35.378Z,2.40
2019-05-14T10:42:09.109Z,2.43
2019-05-14T10:44:42.254Z,2.63
2019-05-14T10:47:18.661Z,2.30
2019-05-14T10:49:44.869Z,2.00
2019-05-14T10:52:21.878Z,1.93
2019-05-14T10:55:00.820Z,2.10
2019-05-14T10:57:35.877Z,2.40
2019-05-14T11:00:11.320Z,2.37
2019-05-14T11:02:49.667Z,2.43
2019-05-14T11:05:24.258Z,3.10
2019-05-14T11:07:55.450Z,2.90
2019-05-14T11:10:29.974Z,2.80
2019-05-14T11:13:08.930Z,2.43
2019-05-14T11:15:53.547Z,3.30
2019-05-14T11:18:30.094Z,3.00
2019-05-14T11:21:18.097Z,2.77
2019-05-14T11:23:32.258Z,2.50
2019-05-14T11:26:15.499Z,3.37
2019-05-14T11:28:39.797Z,2.63
2019-05-14T11:31:23.547Z,2.63
2019-05-14T11:34:02.691Z,2.30
2019-05-14T11:36:38.674Z,2.77
2019-05-14T11:39:12.401Z,2.60
2019-05-14T11:41:58.994Z,2.27
2019-05-14T11:44:33.365Z,2.33
2019-05-14T11:47:08.911Z,3.10
2019-05-14T11:49:49.465Z,3.20
2019-05-14T11:52:18.471Z,3.20
2019-05-14T11:54:51.417Z,3.40
2019-05-14T11:57:48.494Z,3.50
2019-05-14T12:00:25.875Z,3.60
2019-05-14T12:03:04.704Z,2.87
2019-05-14T12:05:39.019Z,2.63
2019-05-14T12:08:09.799Z,2.37
2019-05-14T12:11:03.443Z,2.03
2019-05-14T12:13:48.978Z,2.93
2019-05-14T12:16:28.916Z,2.93
2019-05-14T12:18:59.143Z,2.40
2019-05-14T12:21:35.069Z,2.37
2019-05-14T12:24:06.265Z,2.40
2019-05-14T12:26:38.658Z,2.37
2019-05-14T12:29:12.292Z,2.60
2019-05-14T12:31:50.559Z,1.97
2019-05-14T12:34:18.504Z,2.20
2019-05-14T12:36:49.339Z,2.43
2019-05-14T12:39:21.645Z,2.20
2019-05-14T12:41:55.025Z,1.80
2019-05-14T12:44:29.076Z,2.03
2019-05-14T12:47:01.732Z,1.80
2019-05-14T12:49:35.576Z,1.93
2019-05-14T12:52:17.885Z,2.17
2019-05-14T12:54:38.867Z,1.80
2019-05-14T12:57:14.821Z,2.20
2019-05-14T12:59:43.745Z,2.67
2019-05-14T13:02:15.452Z,2.80
2019-05-14T13:04:48.494Z,3.23
2019-05-14T13:07:19.287Z,3.73
2019-05-14T13:09:49.316Z,4.40
2019-05-14T13:12:23.266Z,4.20
2019-05-14T13:14:57.898Z,3.30
2019-05-14T13:17:38.575Z,2.50
2019-05-14T13:20:13.204Z,3.00
2019-05-14T13:22:45.325Z,2.57
2019-05-14T13:25:12.188Z,2.70
2019-05-14T13:27:42.301Z,2.57
2019-05-14T13:30:12.190Z,2.50
2019-05-14T13:32:43.424Z,2.60
2019-05-14T13:35:19.352Z,3.03
2019-05-14T13:37:49.122Z,2.93
2019-05-14T13:40:22.973Z,3.90
2019-05-14T13:42:52.600Z,3.60
2019-05-14T13:45:25.750Z,2.90
2019-05-14T13:47:59.062Z,3.67
2019-05-14T13:50:35.051Z,2.77
2019-05-14T13:53:09.294Z,3.13
2019-05-14T13:55:46.619Z,3.00
2019-05-14T13:58:11.038Z,2.60
2019-05-14T14:00:40.769Z,3.20
2019-05-14T14:03:11.407Z,3.37
2019-05-14T14:05:42.708Z,3.30
2019-05-14T14:08:13.811Z,3.47
2019-05-14T14:10:51.689Z,3.83
2019-05-14T14:13:20.075Z,3.40
2019-05-14T14:15:50.530Z,3.43
2019-05-14T14:18:29.189Z,3.50
2019-05-14T14:20:59.564Z,3.83
2019-05-14T14:23:39.069Z,3.43
2019-05-14T14:26:11.364Z,4.03
2019-05-14T14:28:41.009Z,3.57
2019-05-14T14:31:12.752Z,3.90
2019-05-14T14:33:43.786Z,4.07
2019-05-14T14:36:22.662Z,4.27
2019-05-14T14:38:59.806Z,4.50
2019-05-14T14:41:32.484Z,4.17
2019-05-14T14:44:10.816Z,4.30
2019-05-14T14:46:41.498Z,4.50
2019-05-14T14:49:13.365Z,4.10
2019-05-14T14:51:45.034Z,4.17
2019-05-14T14:54:16.224Z,5.00
2019-05-14T14:57:08.416Z,5.00
2019-05-14T14:59:18.934Z,4.77
2019-05-14T15:01:50.861Z,4.10
2019-05-14T15:04:22.735Z,4.80
2019-05-14T15:06:52.242Z,4.20
2019-05-14T15:09:23.639Z,4.77
2019-05-14T15:11:55.766Z,4.33
2019-05-14T15:14:29.739Z,4.30
2019-05-14T15:16:58.121Z,14.10
2019-05-14T15:19:29.760Z,5.03
2019-05-14T15:22:04.471Z,4.67
2019-05-14T15:24:30.058Z,5.63
2019-05-14T15:27:07.464Z,4.60
2019-05-14T15:29:31.987Z,5.27
2019-05-14T15:32:04.754Z,4.50
2019-05-14T15:34:34.427Z,6.00
2019-05-14T15:37:08.861Z,4.77
2019-05-14T15:39:39.084Z,4.87
2019-05-14T15:42:13.764Z,5.03
2019-05-14T15:44:52.072Z,4.80
2019-05-14T15:47:15.601Z,5.17
2019-05-14T15:49:48.838Z,5.23
2019-05-14T15:52:23.908Z,5.50
2019-05-14T15:54:56.798Z,5.03
2019-05-14T15:57:29.046Z,5.70
2019-05-14T16:00:01.225Z,5.73
2019-05-14T16:02:35.180Z,6.03
2019-05-14T16:05:09.974Z,6.27
2019-05-14T16:07:39.551Z,6.10
2019-05-14T16:10:11.323Z,6.07
2019-05-14T16:12:43.290Z,5.83
2019-05-14T16:15:14.289Z,6.33
2019-05-14T16:18:07.902Z,7.13
2019-05-14T16:20:33.087Z,6.17
2019-05-14T16:23:02.702Z,6.73
2019-05-14T16:25:37.999Z,6.73
2019-05-14T16:28:13.161Z,7.23
2019-05-14T16:30:50.205Z,6.97
2019-05-14T16:33:29.423Z,7.50
2019-05-14T16:36:12.187Z,10.20
2019-05-14T16:38:44.702Z,8.30
2019-05-14T16:41:05.778Z,8.67
2019-05-14T16:43:49.368Z,9.90
2019-05-14T16:46:20.441Z,8.87
2019-05-14T16:48:58.685Z,10.30
2019-05-14T16:51:33.367Z,11.00
2019-05-14T16:54:10.038Z,10.33
2019-05-14T16:56:43.922Z,11.93
2019-05-14T16:59:09.309Z,13.33
2019-05-14T17:01:38.999Z,14.50
2019-05-14T17:04:09.798Z,18.00
2019-05-14T17:06:44.431Z,18.67
2019-05-14T17:09:21.360Z,15.60
2019-05-14T17:11:48.952Z,13.97
2019-05-14T17:14:22.353Z,14.73
2019-05-14T17:16:56.062Z,11.83
2019-05-14T17:24:24.472Z,11.83
2019-05-14T17:28:24.870Z,10.67
2019-05-14T17:30:03.368Z,10.43
2019-05-14T17:32:39.113Z,11.20
2019-05-14T17:35:42.558Z,11.70
2019-05-14T17:38:19.825Z,10.73
2019-05-14T17:41:00.528Z,11.47
2019-05-14T17:43:52.373Z,11.17
2019-05-14T17:46:31.318Z,10.53
2019-05-14T17:52:45.780Z,10.80
2019-05-14T17:55:22.447Z,10.43
2019-05-14T17:58:12.980Z,10.57
2019-05-14T18:00:38.136Z,10.10
2019-05-14T18:03:11.835Z,13.30
2019-05-14T18:05:41.458Z,12.07
2019-05-14T18:08:11.089Z,11.47
2019-05-14T18:10:42.575Z,12.20
2019-05-14T18:13:18.401Z,12.73
2019-05-14T18:15:51.760Z,15.77
2019-05-14T18:18:23.491Z,12.07
2019-05-14T18:20:53.201Z,17.23
2019-05-14T18:23:22.907Z,13.73
2019-05-14T18:26:04.993Z,12.67
2019-05-14T18:28:28.809Z,12.43
2019-05-14T18:31:01.065Z,13.03
2019-05-14T18:33:32.237Z,15.27
2019-05-14T18:36:03.581Z,14.47
2019-05-14T18:38:33.185Z,13.10
2019-05-14T18:41:08.259Z,16.33
2019-05-14T18:43:36.886Z,13.10
2019-05-14T18:46:10.434Z,13.70
2019-05-14T18:48:51.132Z,13.03
2019-05-14T18:51:28.635Z,17.93
2019-05-14T18:54:00.614Z,13.30
2019-05-14T18:56:30.330Z,41.37
2019-05-14T18:59:02.240Z,15.40
2019-05-14T19:01:33.194Z,36.03
2019-05-14T19:04:02.808Z,13.83
2019-05-14T19:06:32.314Z,16.40
2019-05-14T19:09:01.898Z,13.13
2019-05-14T19:11:31.403Z,14.27
2019-05-14T19:14:01.031Z,12.43
2019-05-14T19:16:30.523Z,12.53
2019-05-14T19:19:00.238Z,12.93
2019-05-14T19:21:33.404Z,12.33
2019-05-14T19:24:05.928Z,11.83
2019-05-14T19:26:40.308Z,13.17
2019-05-14T19:29:08.695Z,14.10
2019-05-14T19:31:38.659Z,12.53
2019-05-14T19:34:22.044Z,13.30
2019-05-14T19:36:44.887Z,13.33
2019-05-14T19:39:18.924Z,13.53
2019-05-14T19:41:49.901Z,12.83
2019-05-14T19:44:23.726Z,12.93
2019-05-14T19:46:56.342Z,13.43
2019-05-14T19:49:28.764Z,13.00
2019-05-14T19:51:58.813Z,11.77
2019-05-14T19:54:31.854Z,12.13
2019-05-14T19:57:01.517Z,12.20
2019-05-14T19:59:41.111Z,11.87
2019-05-14T20:02:09.481Z,14.07
2019-05-14T20:04:39.160Z,12.90
2019-05-14T20:07:10.889Z,13.30
2019-05-14T20:09:44.355Z,12.23
2019-05-14T20:12:13.922Z,13.20
2019-05-14T20:14:45.625Z,11.87
2019-05-14T20:17:19.326Z,11.50
2019-05-14T20:19:49.697Z,11.30
2019-05-14T20:22:21.633Z,11.20
2019-05-14T20:24:52.947Z,11.63
2019-05-14T20:27:25.367Z,12.03
2019-05-14T20:29:58.086Z,12.30
2019-05-14T20:32:30.130Z,11.23
2019-05-14T20:35:01.169Z,11.97
2019-05-14T20:37:30.831Z,12.40
2019-05-14T20:40:04.068Z,11.37
2019-05-14T20:42:39.248Z,12.53
2019-05-14T20:45:10.683Z,12.10
2019-05-14T20:47:48.004Z,13.40
2019-05-14T20:50:18.111Z,12.73
2019-05-14T20:52:48.435Z,13.63
2019-05-14T20:55:19.663Z,13.70
2019-05-14T20:57:54.877Z,13.53
2019-05-14T21:00:24.814Z,12.37
2019-05-14T21:02:56.017Z,13.07
2019-05-14T21:05:28.687Z,14.37
2019-05-14T21:08:13.366Z,12.23
2019-05-14T21:10:31.262Z,13.37
2019-05-14T21:13:00.860Z,13.07
2019-05-14T21:15:38.955Z,13.07
2019-05-14T21:18:03.333Z,13.60
2019-05-14T21:20:35.145Z,13.63
2019-05-14T21:23:08.974Z,13.67
2019-05-14T21:25:48.187Z,13.43
2019-05-14T21:28:11.480Z,13.03
2019-05-14T21:30:41.040Z,14.53
2019-05-14T21:33:12.649Z,14.70
2019-05-14T21:35:45.279Z,13.57
2019-05-14T21:38:19.184Z,14.43
2019-05-14T21:40:50.630Z,14.57
2019-05-14T21:43:21.916Z,14.50
2019-05-14T21:45:51.558Z,13.87
2019-05-14T21:48:22.887Z,13.27
2019-05-14T21:50:52.369Z,14.70
2019-05-14T21:53:24.025Z,13.50
2019-05-14T21:55:54.783Z,14.13
2019-05-14T21:58:29.253Z,13.93
2019-05-14T22:00:59.737Z,13.77
2019-05-14T22:03:29.338Z,13.77
2019-05-14T22:05:59.341Z,14.77
2019-05-14T22:08:30.358Z,13.83
2019-05-14T22:11:00.397Z,14.87
2019-05-14T22:13:32.339Z,16.07
2019-05-14T22:16:01.823Z,15.23
2019-05-14T22:18:31.299Z,15.37
2019-05-14T22:21:00.833Z,16.10
2019-05-14T22:23:30.337Z,15.90
2019-05-14T22:25:59.791Z,15.20
2019-05-14T22:28:29.290Z,15.90
2019-05-14T22:30:58.851Z,15.70
2019-05-14T22:33:28.502Z,16.10
2019-05-14T22:35:58.183Z,15.20
2019-05-14T22:38:29.332Z,16.00
2019-05-14T22:40:59.302Z,15.37
2019-05-14T22:43:28.948Z,16.10
2019-05-14T22:45:59.088Z,16.30
2019-05-14T22:48:28.726Z,16.40
2019-05-14T22:50:59.278Z,16.33
2019-05-14T22:53:30.346Z,16.60
2019-05-14T22:55:59.940Z,17.23
2019-05-14T22:58:29.402Z,16.30
2019-05-14T23:01:13.639Z,17.10
2019-05-14T23:03:30.136Z,17.30
2019-05-14T23:05:59.649Z,18.53
2019-05-14T23:08:29.113Z,17.33
2019-05-14T23:10:58.966Z,18.87
2019-05-14T23:13:30.587Z,17.17
2019-05-14T23:16:08.232Z,16.83
2019-05-14T23:18:37.837Z,17.13
2019-05-14T23:21:08.856Z,17.47
2019-05-14T23:23:39.201Z,17.47
2019-05-14T23:26:08.856Z,18.37
2019-05-14T23:28:45.293Z,18.27
2019-05-14T23:31:09.702Z,17.67
2019-05-14T23:33:39.208Z,17.83
2019-05-14T23:36:08.952Z,17.00
2019-05-14T23:38:39.734Z,16.73
2019-05-14T23:41:09.235Z,17.03
2019-05-14T23:43:41.874Z,18.07
2019-05-14T23:46:18.286Z,16.93
2019-05-14T23:48:48.447Z,17.13
2019-05-14T23:51:28.844Z,16.97
2019-05-14T23:53:58.128Z,18.30
2019-05-14T23:56:30.038Z,17.63
2019-05-14T23:59:02.169Z,17.03
